sensor_id;sensor_type;location;lat;lon;timestamp;P1;durP1;ratioP1;P2;durP2;ratioP2
64885;SDS011;51514;52.206;5.114;2022-12-18T00:01:23;80.55;;;34.22;;
64885;SDS011;51514;52.206;5.114;2022-12-18T00:03:50;88.10;;;38.05;;
64885;SDS011;51514;52.206;5.114;2022-12-18T00:06:17;80.35;;;35.10;;
64885;SDS011;51514;52.206;5.114;2022-12-18T00:08:44;76.72;;;32.80;;
64885;SDS011;51514;52.206;5.114;2022-12-18T00:11:14;78.38;;;32.80;;
64885;SDS011;51514;52.206;5.114;2022-12-18T00:13:40;85.35;;;34.85;;
64885;SDS011;51514;52.206;5.114;2022-12-18T00:16:07;75.57;;;33.65;;
64885;SDS011;51514;52.206;5.114;2022-12-18T00:18:35;83.65;;;32.85;;
64885;SDS011;51514;52.206;5.114;2022-12-18T00:21:04;78.88;;;33.92;;
64885;SDS011;51514;52.206;5.114;2022-12-18T00:23:32;80.15;;;34.90;;
64885;SDS011;51514;52.206;5.114;2022-12-18T00:26:01;82.22;;;35.22;;
64885;SDS011;51514;52.206;5.114;2022-12-18T00:28:27;78.85;;;32.85;;
64885;SDS011;51514;52.206;5.114;2022-12-18T00:31:06;87.43;;;38.05;;
64885;SDS011;51514;52.206;5.114;2022-12-18T00:33:33;88.30;;;35.78;;
64885;SDS011;51514;52.206;5.114;2022-12-18T00:36:03;99.15;;;40.20;;
64885;SDS011;51514;52.206;5.114;2022-12-18T00:38:29;91.40;;;37.97;;
64885;SDS011;51514;52.206;5.114;2022-12-18T00:40:54;100.65;;;43.13;;
64885;SDS011;51514;52.206;5.114;2022-12-18T00:43:20;88.55;;;36.63;;
64885;SDS011;51514;52.206;5.114;2022-12-18T00:45:45;90.15;;;36.83;;
64885;SDS011;51514;52.206;5.114;2022-12-18T00:48:10;91.85;;;36.97;;
64885;SDS011;51514;52.206;5.114;2022-12-18T00:50:36;94.95;;;38.15;;
64885;SDS011;51514;52.206;5.114;2022-12-18T00:53:01;97.50;;;40.75;;
64885;SDS011;51514;52.206;5.114;2022-12-18T00:55:27;95.70;;;38.60;;
64885;SDS011;51514;52.206;5.114;2022-12-18T00:57:52;90.38;;;38.25;;
64885;SDS011;51514;52.206;5.114;2022-12-18T01:00:17;82.90;;;35.25;;
64885;SDS011;51514;52.206;5.114;2022-12-18T01:02:43;83.63;;;36.85;;
64885;SDS011;51514;52.206;5.114;2022-12-18T01:05:09;82.85;;;37.10;;
64885;SDS011;51514;52.206;5.114;2022-12-18T01:07:35;89.80;;;34.85;;
64885;SDS011;51514;52.206;5.114;2022-12-18T01:10:01;81.13;;;33.97;;
64885;SDS011;51514;52.206;5.114;2022-12-18T01:12:26;81.32;;;36.50;;
64885;SDS011;51514;52.206;5.114;2022-12-18T01:14:52;83.72;;;36.55;;
64885;SDS011;51514;52.206;5.114;2022-12-18T01:17:17;89.28;;;36.95;;
64885;SDS011;51514;52.206;5.114;2022-12-18T01:19:42;81.20;;;36.00;;
64885;SDS011;51514;52.206;5.114;2022-12-18T01:22:08;85.60;;;35.95;;
64885;SDS011;51514;52.206;5.114;2022-12-18T01:24:33;78.78;;;34.92;;
64885;SDS011;51514;52.206;5.114;2022-12-18T01:26:58;82.20;;;37.35;;
64885;SDS011;51514;52.206;5.114;2022-12-18T01:29:24;83.22;;;35.47;;
64885;SDS011;51514;52.206;5.114;2022-12-18T01:31:49;74.68;;;35.67;;
64885;SDS011;51514;52.206;5.114;2022-12-18T01:34:14;83.63;;;36.17;;
64885;SDS011;51514;52.206;5.114;2022-12-18T01:36:40;78.10;;;35.35;;
64885;SDS011;51514;52.206;5.114;2022-12-18T01:39:06;75.15;;;34.40;;
64885;SDS011;51514;52.206;5.114;2022-12-18T01:41:36;78.85;;;33.15;;
64885;SDS011;51514;52.206;5.114;2022-12-18T01:47:24;77.20;;;37.42;;
64885;SDS011;51514;52.206;5.114;2022-12-18T01:49:53;79.82;;;33.60;;
64885;SDS011;51514;52.206;5.114;2022-12-18T01:52:19;81.30;;;32.85;;
64885;SDS011;51514;52.206;5.114;2022-12-18T01:54:46;90.10;;;36.10;;
64885;SDS011;51514;52.206;5.114;2022-12-18T01:57:13;83.50;;;34.03;;
64885;SDS011;51514;52.206;5.114;2022-12-18T01:59:39;78.07;;;32.17;;
64885;SDS011;51514;52.206;5.114;2022-12-18T02:02:07;78.60;;;35.03;;
64885;SDS011;51514;52.206;5.114;2022-12-18T02:04:33;77.00;;;34.97;;
64885;SDS011;51514;52.206;5.114;2022-12-18T02:10:06;81.95;;;35.83;;
64885;SDS011;51514;52.206;5.114;2022-12-18T02:12:53;87.63;;;35.60;;
64885;SDS011;51514;52.206;5.114;2022-12-18T02:18:16;87.70;;;38.22;;
64885;SDS011;51514;52.206;5.114;2022-12-18T02:20:47;78.63;;;34.60;;
64885;SDS011;51514;52.206;5.114;2022-12-18T02:23:36;78.97;;;34.53;;
64885;SDS011;51514;52.206;5.114;2022-12-18T02:26:18;78.57;;;35.03;;
64885;SDS011;51514;52.206;5.114;2022-12-18T02:31:17;85.68;;;36.65;;
64885;SDS011;51514;52.206;5.114;2022-12-18T02:33:48;81.38;;;37.35;;
64885;SDS011;51514;52.206;5.114;2022-12-18T02:36:16;82.00;;;36.58;;
64885;SDS011;51514;52.206;5.114;2022-12-18T02:38:44;85.97;;;35.58;;
64885;SDS011;51514;52.206;5.114;2022-12-18T02:41:11;82.78;;;36.15;;
64885;SDS011;51514;52.206;5.114;2022-12-18T02:43:39;76.00;;;34.83;;
64885;SDS011;51514;52.206;5.114;2022-12-18T02:46:20;82.57;;;36.20;;
64885;SDS011;51514;52.206;5.114;2022-12-18T02:49:21;75.10;;;34.72;;
64885;SDS011;51514;52.206;5.114;2022-12-18T02:51:52;76.85;;;34.70;;
64885;SDS011;51514;52.206;5.114;2022-12-18T02:54:23;72.90;;;34.10;;
64885;SDS011;51514;52.206;5.114;2022-12-18T02:57:04;76.22;;;34.35;;
64885;SDS011;51514;52.206;5.114;2022-12-18T02:59:45;79.75;;;35.78;;
64885;SDS011;51514;52.206;5.114;2022-12-18T03:07:50;75.03;;;33.63;;
64885;SDS011;51514;52.206;5.114;2022-12-18T03:10:23;77.47;;;35.63;;
64885;SDS011;51514;52.206;5.114;2022-12-18T03:13:36;80.75;;;35.53;;
64885;SDS011;51514;52.206;5.114;2022-12-18T03:15:58;64.72;;;31.20;;
64885;SDS011;51514;52.206;5.114;2022-12-18T03:18:27;68.15;;;30.52;;
64885;SDS011;51514;52.206;5.114;2022-12-18T03:20:55;74.07;;;34.60;;
64885;SDS011;51514;52.206;5.114;2022-12-18T03:23:28;69.80;;;32.60;;
64885;SDS011;51514;52.206;5.114;2022-12-18T03:26:00;69.15;;;31.65;;
64885;SDS011;51514;52.206;5.114;2022-12-18T03:28:29;71.68;;;34.28;;
64885;SDS011;51514;52.206;5.114;2022-12-18T03:30:57;73.38;;;32.63;;
64885;SDS011;51514;52.206;5.114;2022-12-18T03:33:27;65.00;;;32.58;;
64885;SDS011;51514;52.206;5.114;2022-12-18T03:35:57;70.82;;;32.25;;
64885;SDS011;51514;52.206;5.114;2022-12-18T03:38:23;68.28;;;33.85;;
64885;SDS011;51514;52.206;5.114;2022-12-18T03:49:35;66.47;;;31.30;;
64885;SDS011;51514;52.206;5.114;2022-12-18T03:52:11;69.50;;;32.30;;
64885;SDS011;51514;52.206;5.114;2022-12-18T03:54:42;67.40;;;31.25;;
64885;SDS011;51514;52.206;5.114;2022-12-18T03:57:11;65.13;;;29.92;;
64885;SDS011;51514;52.206;5.114;2022-12-18T03:59:42;62.20;;;30.05;;
64885;SDS011;51514;52.206;5.114;2022-12-18T04:02:10;67.70;;;32.22;;
64885;SDS011;51514;52.206;5.114;2022-12-18T04:04:36;62.78;;;30.30;;
64885;SDS011;51514;52.206;5.114;2022-12-18T04:07:03;65.18;;;31.17;;
64885;SDS011;51514;52.206;5.114;2022-12-18T04:09:29;60.65;;;29.20;;
64885;SDS011;51514;52.206;5.114;2022-12-18T04:11:56;61.72;;;30.88;;
64885;SDS011;51514;52.206;5.114;2022-12-18T04:14:22;68.75;;;32.00;;
64885;SDS011;51514;52.206;5.114;2022-12-18T04:16:47;62.90;;;32.55;;
64885;SDS011;51514;52.206;5.114;2022-12-18T04:19:12;69.07;;;33.35;;
64885;SDS011;51514;52.206;5.114;2022-12-18T04:21:38;73.32;;;32.92;;
64885;SDS011;51514;52.206;5.114;2022-12-18T04:24:03;62.38;;;31.38;;
64885;SDS011;51514;52.206;5.114;2022-12-18T04:26:29;65.40;;;31.45;;
64885;SDS011;51514;52.206;5.114;2022-12-18T04:28:55;55.97;;;28.77;;
64885;SDS011;51514;52.206;5.114;2022-12-18T04:31:20;55.97;;;30.52;;
64885;SDS011;51514;52.206;5.114;2022-12-18T04:33:46;59.15;;;30.33;;
64885;SDS011;51514;52.206;5.114;2022-12-18T04:36:11;60.10;;;29.73;;
64885;SDS011;51514;52.206;5.114;2022-12-18T04:38:37;57.70;;;28.50;;
64885;SDS011;51514;52.206;5.114;2022-12-18T04:41:03;55.45;;;30.13;;
64885;SDS011;51514;52.206;5.114;2022-12-18T04:43:28;57.28;;;29.98;;
64885;SDS011;51514;52.206;5.114;2022-12-18T04:45:53;59.10;;;29.65;;
64885;SDS011;51514;52.206;5.114;2022-12-18T04:48:25;59.80;;;29.60;;
64885;SDS011;51514;52.206;5.114;2022-12-18T04:50:51;54.75;;;28.75;;
64885;SDS011;51514;52.206;5.114;2022-12-18T04:53:16;60.35;;;29.45;;
64885;SDS011;51514;52.206;5.114;2022-12-18T04:55:42;53.97;;;27.55;;
64885;SDS011;51514;52.206;5.114;2022-12-18T04:58:07;57.83;;;29.23;;
64885;SDS011;51514;52.206;5.114;2022-12-18T05:00:32;53.38;;;26.40;;
64885;SDS011;51514;52.206;5.114;2022-12-18T05:02:57;58.40;;;27.88;;
64885;SDS011;51514;52.206;5.114;2022-12-18T05:05:26;52.58;;;26.92;;
64885;SDS011;51514;52.206;5.114;2022-12-18T05:07:52;54.47;;;27.35;;
64885;SDS011;51514;52.206;5.114;2022-12-18T05:10:17;51.30;;;26.33;;
64885;SDS011;51514;52.206;5.114;2022-12-18T05:12:42;54.33;;;28.17;;
64885;SDS011;51514;52.206;5.114;2022-12-18T05:15:23;51.78;;;27.98;;
64885;SDS011;51514;52.206;5.114;2022-12-18T05:17:51;48.53;;;25.77;;
64885;SDS011;51514;52.206;5.114;2022-12-18T05:20:16;49.08;;;26.02;;
64885;SDS011;51514;52.206;5.114;2022-12-18T05:22:43;52.70;;;25.30;;
64885;SDS011;51514;52.206;5.114;2022-12-18T05:25:08;52.22;;;26.75;;
64885;SDS011;51514;52.206;5.114;2022-12-18T05:27:34;51.40;;;27.30;;
64885;SDS011;51514;52.206;5.114;2022-12-18T05:29:59;44.40;;;24.52;;
64885;SDS011;51514;52.206;5.114;2022-12-18T05:32:24;47.30;;;25.50;;
64885;SDS011;51514;52.206;5.114;2022-12-18T05:34:49;46.40;;;25.42;;
64885;SDS011;51514;52.206;5.114;2022-12-18T05:37:15;53.60;;;26.98;;
64885;SDS011;51514;52.206;5.114;2022-12-18T05:39:40;51.38;;;25.77;;
64885;SDS011;51514;52.206;5.114;2022-12-18T05:42:05;47.45;;;24.98;;
64885;SDS011;51514;52.206;5.114;2022-12-18T05:44:31;42.38;;;22.33;;
64885;SDS011;51514;52.206;5.114;2022-12-18T05:46:56;40.65;;;24.25;;
64885;SDS011;51514;52.206;5.114;2022-12-18T05:49:21;44.70;;;22.95;;
64885;SDS011;51514;52.206;5.114;2022-12-18T05:51:47;40.88;;;23.50;;
64885;SDS011;51514;52.206;5.114;2022-12-18T05:54:12;42.38;;;22.90;;
64885;SDS011;51514;52.206;5.114;2022-12-18T05:56:37;46.20;;;22.38;;
64885;SDS011;51514;52.206;5.114;2022-12-18T05:59:03;42.28;;;21.75;;
64885;SDS011;51514;52.206;5.114;2022-12-18T06:01:28;43.22;;;21.15;;
64885;SDS011;51514;52.206;5.114;2022-12-18T06:03:54;35.80;;;21.25;;
64885;SDS011;51514;52.206;5.114;2022-12-18T06:06:21;41.40;;;20.98;;
64885;SDS011;51514;52.206;5.114;2022-12-18T06:08:49;40.60;;;19.55;;
64885;SDS011;51514;52.206;5.114;2022-12-18T06:11:19;38.08;;;21.00;;
64885;SDS011;51514;52.206;5.114;2022-12-18T06:13:46;36.88;;;21.17;;
64885;SDS011;51514;52.206;5.114;2022-12-18T06:16:14;32.63;;;19.55;;
64885;SDS011;51514;52.206;5.114;2022-12-18T06:18:39;42.78;;;21.35;;
64885;SDS011;51514;52.206;5.114;2022-12-18T06:21:04;36.38;;;21.38;;
64885;SDS011;51514;52.206;5.114;2022-12-18T06:23:30;42.42;;;22.48;;
64885;SDS011;51514;52.206;5.114;2022-12-18T06:25:55;36.88;;;20.45;;
64885;SDS011;51514;52.206;5.114;2022-12-18T06:28:20;36.17;;;19.75;;
64885;SDS011;51514;52.206;5.114;2022-12-18T06:30:47;29.75;;;18.60;;
64885;SDS011;51514;52.206;5.114;2022-12-18T06:33:13;34.42;;;18.55;;
64885;SDS011;51514;52.206;5.114;2022-12-18T06:35:39;34.55;;;18.65;;
64885;SDS011;51514;52.206;5.114;2022-12-18T06:38:05;31.15;;;18.30;;
64885;SDS011;51514;52.206;5.114;2022-12-18T06:40:30;34.55;;;19.58;;
64885;SDS011;51514;52.206;5.114;2022-12-18T06:42:56;29.73;;;19.35;;
64885;SDS011;51514;52.206;5.114;2022-12-18T06:45:21;33.25;;;19.05;;
64885;SDS011;51514;52.206;5.114;2022-12-18T06:47:46;33.75;;;19.17;;
64885;SDS011;51514;52.206;5.114;2022-12-18T06:50:12;35.83;;;19.33;;
64885;SDS011;51514;52.206;5.114;2022-12-18T06:52:38;34.20;;;19.05;;
64885;SDS011;51514;52.206;5.114;2022-12-18T06:55:05;34.45;;;18.70;;
64885;SDS011;51514;52.206;5.114;2022-12-18T06:57:31;31.60;;;18.80;;
64885;SDS011;51514;52.206;5.114;2022-12-18T06:59:57;32.35;;;18.25;;
64885;SDS011;51514;52.206;5.114;2022-12-18T07:02:22;33.20;;;18.80;;
64885;SDS011;51514;52.206;5.114;2022-12-18T07:04:47;31.75;;;18.33;;
64885;SDS011;51514;52.206;5.114;2022-12-18T07:07:13;30.00;;;18.20;;
64885;SDS011;51514;52.206;5.114;2022-12-18T07:09:38;25.27;;;15.95;;
64885;SDS011;51514;52.206;5.114;2022-12-18T07:12:03;33.47;;;18.90;;
64885;SDS011;51514;52.206;5.114;2022-12-18T07:14:29;33.78;;;18.23;;
64885;SDS011;51514;52.206;5.114;2022-12-18T07:16:55;29.17;;;16.73;;
64885;SDS011;51514;52.206;5.114;2022-12-18T07:19:24;30.27;;;17.65;;
64885;SDS011;51514;52.206;5.114;2022-12-18T07:21:50;30.02;;;17.95;;
64885;SDS011;51514;52.206;5.114;2022-12-18T07:24:15;31.25;;;17.75;;
64885;SDS011;51514;52.206;5.114;2022-12-18T07:26:41;29.20;;;17.73;;
64885;SDS011;51514;52.206;5.114;2022-12-18T07:29:06;28.10;;;17.88;;
64885;SDS011;51514;52.206;5.114;2022-12-18T07:31:31;31.95;;;17.50;;
64885;SDS011;51514;52.206;5.114;2022-12-18T07:33:57;31.95;;;18.27;;
64885;SDS011;51514;52.206;5.114;2022-12-18T07:36:22;32.55;;;16.95;;
64885;SDS011;51514;52.206;5.114;2022-12-18T07:38:48;30.98;;;17.23;;
64885;SDS011;51514;52.206;5.114;2022-12-18T07:41:14;29.15;;;16.90;;
64885;SDS011;51514;52.206;5.114;2022-12-18T07:43:40;35.10;;;18.02;;
64885;SDS011;51514;52.206;5.114;2022-12-18T07:46:06;31.10;;;17.52;;
64885;SDS011;51514;52.206;5.114;2022-12-18T07:48:33;29.92;;;16.90;;
64885;SDS011;51514;52.206;5.114;2022-12-18T07:50:58;27.60;;;17.00;;
64885;SDS011;51514;52.206;5.114;2022-12-18T07:53:29;32.47;;;18.48;;
64885;SDS011;51514;52.206;5.114;2022-12-18T07:55:55;27.88;;;16.08;;
64885;SDS011;51514;52.206;5.114;2022-12-18T08:00:50;28.67;;;17.02;;
64885;SDS011;51514;52.206;5.114;2022-12-18T08:03:15;25.70;;;15.57;;
64885;SDS011;51514;52.206;5.114;2022-12-18T08:05:41;29.55;;;16.20;;
64885;SDS011;51514;52.206;5.114;2022-12-18T08:08:06;32.00;;;19.52;;
64885;SDS011;51514;52.206;5.114;2022-12-18T08:10:31;32.15;;;16.90;;
64885;SDS011;51514;52.206;5.114;2022-12-18T08:12:57;27.25;;;16.92;;
64885;SDS011;51514;52.206;5.114;2022-12-18T08:15:22;27.85;;;16.10;;
64885;SDS011;51514;52.206;5.114;2022-12-18T08:17:47;28.92;;;16.83;;
64885;SDS011;51514;52.206;5.114;2022-12-18T08:20:13;27.85;;;15.52;;
64885;SDS011;51514;52.206;5.114;2022-12-18T08:22:40;24.80;;;16.98;;
64885;SDS011;51514;52.206;5.114;2022-12-18T08:25:08;29.45;;;17.23;;
64885;SDS011;51514;52.206;5.114;2022-12-18T08:27:34;31.73;;;18.23;;
64885;SDS011;51514;52.206;5.114;2022-12-18T08:30:00;29.23;;;17.42;;
64885;SDS011;51514;52.206;5.114;2022-12-18T08:32:26;28.00;;;16.08;;
64885;SDS011;51514;52.206;5.114;2022-12-18T08:34:52;33.13;;;18.30;;
64885;SDS011;51514;52.206;5.114;2022-12-18T08:37:17;30.23;;;16.83;;
64885;SDS011;51514;52.206;5.114;2022-12-18T08:39:43;26.70;;;15.93;;
64885;SDS011;51514;52.206;5.114;2022-12-18T08:42:08;32.47;;;17.83;;
64885;SDS011;51514;52.206;5.114;2022-12-18T08:44:53;28.55;;;16.98;;
64885;SDS011;51514;52.206;5.114;2022-12-18T08:47:18;28.23;;;17.40;;
64885;SDS011;51514;52.206;5.114;2022-12-18T08:49:43;28.17;;;16.67;;
64885;SDS011;51514;52.206;5.114;2022-12-18T08:52:09;28.83;;;16.52;;
64885;SDS011;51514;52.206;5.114;2022-12-18T08:54:34;27.85;;;17.25;;
64885;SDS011;51514;52.206;5.114;2022-12-18T08:56:59;26.75;;;15.93;;
64885;SDS011;51514;52.206;5.114;2022-12-18T08:59:27;26.65;;;16.55;;
64885;SDS011;51514;52.206;5.114;2022-12-18T09:01:53;29.05;;;17.90;;
64885;SDS011;51514;52.206;5.114;2022-12-18T09:04:18;29.13;;;17.25;;
64885;SDS011;51514;52.206;5.114;2022-12-18T09:06:44;31.73;;;18.10;;
64885;SDS011;51514;52.206;5.114;2022-12-18T09:09:09;24.80;;;16.05;;
64885;SDS011;51514;52.206;5.114;2022-12-18T09:11:35;31.20;;;16.92;;
64885;SDS011;51514;52.206;5.114;2022-12-18T09:14:00;25.58;;;16.42;;
64885;SDS011;51514;52.206;5.114;2022-12-18T09:16:27;26.50;;;16.10;;
64885;SDS011;51514;52.206;5.114;2022-12-18T09:18:56;23.52;;;15.70;;
64885;SDS011;51514;52.206;5.114;2022-12-18T09:21:25;27.35;;;17.00;;
64885;SDS011;51514;52.206;5.114;2022-12-18T09:23:53;25.90;;;16.55;;
64885;SDS011;51514;52.206;5.114;2022-12-18T09:26:24;29.88;;;17.40;;
64885;SDS011;51514;52.206;5.114;2022-12-18T09:28:50;23.98;;;14.82;;
64885;SDS011;51514;52.206;5.114;2022-12-18T09:31:16;28.33;;;15.90;;
64885;SDS011;51514;52.206;5.114;2022-12-18T09:33:44;24.70;;;15.48;;
64885;SDS011;51514;52.206;5.114;2022-12-18T09:36:10;27.23;;;15.90;;
64885;SDS011;51514;52.206;5.114;2022-12-18T09:38:38;26.15;;;15.85;;
64885;SDS011;51514;52.206;5.114;2022-12-18T09:41:19;23.90;;;14.75;;
64885;SDS011;51514;52.206;5.114;2022-12-18T09:44:05;27.45;;;15.48;;
64885;SDS011;51514;52.206;5.114;2022-12-18T09:46:42;27.92;;;16.33;;
64885;SDS011;51514;52.206;5.114;2022-12-18T09:49:13;26.92;;;14.88;;
64885;SDS011;51514;52.206;5.114;2022-12-18T09:52:04;28.02;;;16.05;;
64885;SDS011;51514;52.206;5.114;2022-12-18T09:54:38;23.38;;;14.70;;
64885;SDS011;51514;52.206;5.114;2022-12-18T09:57:16;28.58;;;17.08;;
64885;SDS011;51514;52.206;5.114;2022-12-18T09:59:46;26.75;;;16.55;;
64885;SDS011;51514;52.206;5.114;2022-12-18T10:02:19;25.08;;;15.50;;
64885;SDS011;51514;52.206;5.114;2022-12-18T10:04:53;24.10;;;15.40;;
64885;SDS011;51514;52.206;5.114;2022-12-18T10:21:09;24.73;;;15.88;;
64885;SDS011;51514;52.206;5.114;2022-12-18T10:26:18;25.75;;;14.85;;
64885;SDS011;51514;52.206;5.114;2022-12-18T10:28:43;29.40;;;15.63;;
64885;SDS011;51514;52.206;5.114;2022-12-18T10:31:16;28.35;;;16.25;;
64885;SDS011;51514;52.206;5.114;2022-12-18T10:33:47;25.92;;;15.48;;
64885;SDS011;51514;52.206;5.114;2022-12-18T10:36:13;24.70;;;14.57;;
64885;SDS011;51514;52.206;5.114;2022-12-18T10:38:39;24.75;;;14.75;;
64885;SDS011;51514;52.206;5.114;2022-12-18T10:41:05;24.15;;;15.65;;
64885;SDS011;51514;52.206;5.114;2022-12-18T10:43:44;24.88;;;14.77;;
64885;SDS011;51514;52.206;5.114;2022-12-18T10:48:36;24.73;;;15.70;;
64885;SDS011;51514;52.206;5.114;2022-12-18T10:51:03;25.88;;;15.23;;
64885;SDS011;51514;52.206;5.114;2022-12-18T10:53:31;25.25;;;14.70;;
64885;SDS011;51514;52.206;5.114;2022-12-18T10:56:03;23.67;;;13.80;;
64885;SDS011;51514;52.206;5.114;2022-12-18T10:58:35;27.75;;;15.68;;
64885;SDS011;51514;52.206;5.114;2022-12-18T11:01:12;25.80;;;14.48;;
64885;SDS011;51514;52.206;5.114;2022-12-18T11:03:43;24.70;;;15.10;;
64885;SDS011;51514;52.206;5.114;2022-12-18T11:06:23;28.10;;;16.35;;
64885;SDS011;51514;52.206;5.114;2022-12-18T11:08:57;22.23;;;13.38;;
64885;SDS011;51514;52.206;5.114;2022-12-18T11:11:24;21.70;;;13.52;;
64885;SDS011;51514;52.206;5.114;2022-12-18T11:14:42;25.25;;;15.30;;
64885;SDS011;51514;52.206;5.114;2022-12-18T11:16:46;23.27;;;14.13;;
64885;SDS011;51514;52.206;5.114;2022-12-18T11:21:53;24.25;;;14.57;;
64885;SDS011;51514;52.206;5.114;2022-12-18T11:24:20;23.88;;;15.00;;
64885;SDS011;51514;52.206;5.114;2022-12-18T11:29:18;23.02;;;14.90;;
64885;SDS011;51514;52.206;5.114;2022-12-18T11:31:49;20.30;;;13.27;;
64885;SDS011;51514;52.206;5.114;2022-12-18T11:36:54;23.92;;;15.40;;
64885;SDS011;51514;52.206;5.114;2022-12-18T11:39:34;24.52;;;15.15;;
64885;SDS011;51514;52.206;5.114;2022-12-18T11:44:50;24.70;;;13.45;;
64885;SDS011;51514;52.206;5.114;2022-12-18T11:47:35;25.02;;;15.82;;
64885;SDS011;51514;52.206;5.114;2022-12-18T11:50:11;24.10;;;14.73;;
64885;SDS011;51514;52.206;5.114;2022-12-18T11:52:40;26.42;;;15.48;;
64885;SDS011;51514;52.206;5.114;2022-12-18T11:55:13;24.15;;;14.20;;
64885;SDS011;51514;52.206;5.114;2022-12-18T12:05:32;24.23;;;14.40;;
64885;SDS011;51514;52.206;5.114;2022-12-18T12:16:37;20.35;;;12.85;;
64885;SDS011;51514;52.206;5.114;2022-12-18T12:22:13;27.20;;;15.25;;
64885;SDS011;51514;52.206;5.114;2022-12-18T12:30:42;22.70;;;13.30;;
64885;SDS011;51514;52.206;5.114;2022-12-18T12:33:32;21.17;;;13.00;;
64885;SDS011;51514;52.206;5.114;2022-12-18T12:36:13;23.20;;;13.88;;
64885;SDS011;51514;52.206;5.114;2022-12-18T12:38:57;21.30;;;13.30;;
64885;SDS011;51514;52.206;5.114;2022-12-18T12:41:31;24.25;;;13.35;;
64885;SDS011;51514;52.206;5.114;2022-12-18T12:44:59;23.88;;;14.60;;
64885;SDS011;51514;52.206;5.114;2022-12-18T12:47:17;23.35;;;14.07;;
64885;SDS011;51514;52.206;5.114;2022-12-18T12:49:47;22.38;;;13.77;;
64885;SDS011;51514;52.206;5.114;2022-12-18T12:54:42;22.73;;;14.57;;
64885;SDS011;51514;52.206;5.114;2022-12-18T12:57:11;23.63;;;14.45;;
64885;SDS011;51514;52.206;5.114;2022-12-18T13:00:34;25.08;;;14.48;;
64885;SDS011;51514;52.206;5.114;2022-12-18T13:07:54;22.77;;;14.23;;
64885;SDS011;51514;52.206;5.114;2022-12-18T13:10:31;25.38;;;14.02;;
64885;SDS011;51514;52.206;5.114;2022-12-18T13:15:47;25.02;;;14.07;;
64885;SDS011;51514;52.206;5.114;2022-12-18T13:18:15;24.40;;;13.60;;
64885;SDS011;51514;52.206;5.114;2022-12-18T13:20:49;21.58;;;13.48;;
64885;SDS011;51514;52.206;5.114;2022-12-18T13:23:27;22.25;;;14.43;;
64885;SDS011;51514;52.206;5.114;2022-12-18T13:31:15;23.13;;;14.10;;
64885;SDS011;51514;52.206;5.114;2022-12-18T13:34:19;23.73;;;13.48;;
64885;SDS011;51514;52.206;5.114;2022-12-18T13:36:46;26.58;;;14.32;;
64885;SDS011;51514;52.206;5.114;2022-12-18T13:41:46;25.95;;;16.40;;
64885;SDS011;51514;52.206;5.114;2022-12-18T13:46:45;21.50;;;13.52;;
64885;SDS011;51514;52.206;5.114;2022-12-18T13:51:38;23.42;;;14.38;;
64885;SDS011;51514;52.206;5.114;2022-12-18T13:56:59;21.02;;;13.02;;
64885;SDS011;51514;52.206;5.114;2022-12-18T13:59:26;23.35;;;14.18;;
64885;SDS011;51514;52.206;5.114;2022-12-18T14:01:59;22.13;;;13.35;;
64885;SDS011;51514;52.206;5.114;2022-12-18T14:04:31;23.50;;;14.10;;
64885;SDS011;51514;52.206;5.114;2022-12-18T14:07:10;25.00;;;14.85;;
64885;SDS011;51514;52.206;5.114;2022-12-18T14:09:45;22.10;;;14.52;;
64885;SDS011;51514;52.206;5.114;2022-12-18T14:12:17;25.65;;;14.40;;
64885;SDS011;51514;52.206;5.114;2022-12-18T14:15:05;24.48;;;14.48;;
64885;SDS011;51514;52.206;5.114;2022-12-18T14:17:40;24.70;;;14.55;;
64885;SDS011;51514;52.206;5.114;2022-12-18T14:20:12;22.80;;;14.73;;
64885;SDS011;51514;52.206;5.114;2022-12-18T14:22:39;24.27;;;15.90;;
64885;SDS011;51514;52.206;5.114;2022-12-18T14:27:37;25.92;;;16.08;;
64885;SDS011;51514;52.206;5.114;2022-12-18T14:30:25;24.43;;;14.53;;
64885;SDS011;51514;52.206;5.114;2022-12-18T14:35:29;23.00;;;13.45;;
64885;SDS011;51514;52.206;5.114;2022-12-18T14:38:18;24.52;;;14.57;;
64885;SDS011;51514;52.206;5.114;2022-12-18T14:40:47;23.92;;;14.10;;
64885;SDS011;51514;52.206;5.114;2022-12-18T14:43:16;24.30;;;13.75;;
64885;SDS011;51514;52.206;5.114;2022-12-18T14:45:43;23.00;;;15.10;;
64885;SDS011;51514;52.206;5.114;2022-12-18T14:48:15;25.10;;;15.05;;
64885;SDS011;51514;52.206;5.114;2022-12-18T14:50:55;23.35;;;13.85;;
64885;SDS011;51514;52.206;5.114;2022-12-18T14:53:31;24.52;;;15.05;;
64885;SDS011;51514;52.206;5.114;2022-12-18T14:56:21;23.15;;;14.80;;
64885;SDS011;51514;52.206;5.114;2022-12-18T14:58:52;27.13;;;16.13;;
64885;SDS011;51514;52.206;5.114;2022-12-18T15:01:21;27.67;;;16.37;;
64885;SDS011;51514;52.206;5.114;2022-12-18T15:04:01;26.55;;;14.38;;
64885;SDS011;51514;52.206;5.114;2022-12-18T15:06:29;27.40;;;15.65;;
64885;SDS011;51514;52.206;5.114;2022-12-18T15:09:00;24.35;;;15.25;;
64885;SDS011;51514;52.206;5.114;2022-12-18T15:11:32;26.13;;;15.97;;
64885;SDS011;51514;52.206;5.114;2022-12-18T15:14:21;24.15;;;15.65;;
64885;SDS011;51514;52.206;5.114;2022-12-18T15:16:54;30.80;;;16.95;;
64885;SDS011;51514;52.206;5.114;2022-12-18T15:19:21;25.25;;;15.75;;
64885;SDS011;51514;52.206;5.114;2022-12-18T15:21:50;27.45;;;15.52;;
64885;SDS011;51514;52.206;5.114;2022-12-18T15:24:22;21.80;;;14.68;;
64885;SDS011;51514;52.206;5.114;2022-12-18T15:26:52;25.17;;;15.63;;
64885;SDS011;51514;52.206;5.114;2022-12-18T15:29:19;28.58;;;16.67;;
64885;SDS011;51514;52.206;5.114;2022-12-18T15:32:01;26.98;;;16.65;;
64885;SDS011;51514;52.206;5.114;2022-12-18T15:34:29;26.98;;;16.30;;
64885;SDS011;51514;52.206;5.114;2022-12-18T15:36:54;31.52;;;17.13;;
64885;SDS011;51514;52.206;5.114;2022-12-18T15:39:20;31.33;;;17.30;;
64885;SDS011;51514;52.206;5.114;2022-12-18T15:41:45;27.50;;;16.50;;
64885;SDS011;51514;52.206;5.114;2022-12-18T15:44:46;29.27;;;15.02;;
64885;SDS011;51514;52.206;5.114;2022-12-18T15:47:12;27.52;;;15.05;;
64885;SDS011;51514;52.206;5.114;2022-12-18T15:49:38;30.50;;;16.20;;
64885;SDS011;51514;52.206;5.114;2022-12-18T15:52:03;27.20;;;15.95;;
64885;SDS011;51514;52.206;5.114;2022-12-18T15:54:29;30.65;;;17.42;;
64885;SDS011;51514;52.206;5.114;2022-12-18T15:57:13;30.88;;;18.42;;
64885;SDS011;51514;52.206;5.114;2022-12-18T15:59:54;30.92;;;16.90;;
64885;SDS011;51514;52.206;5.114;2022-12-18T16:02:23;31.33;;;18.17;;
64885;SDS011;51514;52.206;5.114;2022-12-18T16:04:49;26.10;;;15.60;;
64885;SDS011;51514;52.206;5.114;2022-12-18T16:07:16;25.67;;;15.77;;
64885;SDS011;51514;52.206;5.114;2022-12-18T16:09:42;31.98;;;17.35;;
64885;SDS011;51514;52.206;5.114;2022-12-18T16:12:18;28.55;;;18.20;;
64885;SDS011;51514;52.206;5.114;2022-12-18T16:14:46;34.00;;;18.30;;
64885;SDS011;51514;52.206;5.114;2022-12-18T16:17:12;26.73;;;15.93;;
64885;SDS011;51514;52.206;5.114;2022-12-18T16:19:39;28.58;;;17.00;;
64885;SDS011;51514;52.206;5.114;2022-12-18T16:22:04;24.58;;;15.57;;
64885;SDS011;51514;52.206;5.114;2022-12-18T16:24:31;28.45;;;18.35;;
64885;SDS011;51514;52.206;5.114;2022-12-18T16:26:59;25.52;;;15.68;;
64885;SDS011;51514;52.206;5.114;2022-12-18T16:29:25;31.70;;;18.42;;